sensor_id;sensor_type;location;lat;lon;timestamp;temperature;humidity
6307;DHT22;3186;54.062;9.962;2023-04-25T00:01:17;9.80;99.90
6307;DHT22;3186;54.062;9.962;2023-04-25T00:03:44;9.70;99.90
6307;DHT22;3186;54.062;9.962;2023-04-25T00:06:11;9.80;99.90
6307;DHT22;3186;54.062;9.962;2023-04-25T00:08:37;9.80;99.90
6307;DHT22;3186;54.062;9.962;2023-04-25T00:11:03;9.80;99.90
6307;DHT22;3186;54.062;9.962;2023-04-25T00:13:29;9.80;99.90
6307;DHT22;3186;54.062;9.962;2023-04-25T00:15:55;9.70;99.90
6307;DHT22;3186;54.062;9.962;2023-04-25T00:18:26;9.90;99.90
6307;DHT22;3186;54.062;9.962;2023-04-25T00:20:54;9.90;99.90
6307;DHT22;3186;54.062;9.962;2023-04-25T00:23:20;9.70;99.90
6307;DHT22;3186;54.062;9.962;2023-04-25T00:25:48;9.80;99.90
6307;DHT22;3186;54.062;9.962;2023-04-25T00:28:15;9.90;99.90
6307;DHT22;3186;54.062;9.962;2023-04-25T00:30:41;9.80;99.90
6307;DHT22;3186;54.062;9.962;2023-04-25T00:33:08;9.90;99.90
6307;DHT22;3186;54.062;9.962;2023-04-25T00:35:34;9.90;99.90
6307;DHT22;3186;54.062;9.962;2023-04-25T00:38:00;9.70;99.90
6307;DHT22;3186;54.062;9.962;2023-04-25T00:40:27;9.60;99.90
6307;DHT22;3186;54.062;9.962;2023-04-25T00:42:53;9.70;99.90
6307;DHT22;3186;54.062;9.962;2023-04-25T00:45:20;9.70;99.90
6307;DHT22;3186;54.062;9.962;2023-04-25T00:47:46;9.70;99.90
6307;DHT22;3186;54.062;9.962;2023-04-25T00:50:13;9.70;99.90
6307;DHT22;3186;54.062;9.962;2023-04-25T00:52:42;9.70;99.90
6307;DHT22;3186;54.062;9.962;2023-04-25T00:55:10;9.60;99.90
6307;DHT22;3186;54.062;9.962;2023-04-25T00:57:36;9.40;99.90
6307;DHT22;3186;54.062;9.962;2023-04-25T01:00:06;9.50;99.90
6307;DHT22;3186;54.062;9.962;2023-04-25T01:02:33;9.50;99.90
6307;DHT22;3186;54.062;9.962;2023-04-25T01:04:59;9.60;99.90
6307;DHT22;3186;54.062;9.962;2023-04-25T01:07:25;9.50;99.90
6307;DHT22;3186;54.062;9.962;2023-04-25T01:09:52;9.50;99.90
6307;DHT22;3186;54.062;9.962;2023-04-25T01:12:18;9.50;99.90
6307;DHT22;3186;54.062;9.962;2023-04-25T01:14:44;9.40;99.90
6307;DHT22;3186;54.062;9.962;2023-04-25T01:17:11;9.60;99.90
6307;DHT22;3186;54.062;9.962;2023-04-25T01:19:37;9.60;99.90
6307;DHT22;3186;54.062;9.962;2023-04-25T01:22:03;9.40;99.90
6307;DHT22;3186;54.062;9.962;2023-04-25T01:24:32;9.40;99.90
6307;DHT22;3186;54.062;9.962;2023-04-25T01:26:58;9.40;99.90
6307;DHT22;3186;54.062;9.962;2023-04-25T01:29:26;9.40;99.90
6307;DHT22;3186;54.062;9.962;2023-04-25T01:31:53;9.40;99.90
6307;DHT22;3186;54.062;9.962;2023-04-25T01:34:19;9.50;99.90
6307;DHT22;3186;54.062;9.962;2023-04-25T01:36:48;9.30;99.90
6307;DHT22;3186;54.062;9.962;2023-04-25T01:39:15;9.40;99.90
6307;DHT22;3186;54.062;9.962;2023-04-25T01:41:41;9.40;99.90
6307;DHT22;3186;54.062;9.962;2023-04-25T01:44:07;9.30;99.90
6307;DHT22;3186;54.062;9.962;2023-04-25T01:46:34;8.90;99.90
6307;DHT22;3186;54.062;9.962;2023-04-25T01:49:00;8.90;99.90
6307;DHT22;3186;54.062;9.962;2023-04-25T01:51:26;8.80;99.90
6307;DHT22;3186;54.062;9.962;2023-04-25T01:53:52;9.00;99.90
6307;DHT22;3186;54.062;9.962;2023-04-25T01:56:18;9.10;99.90
6307;DHT22;3186;54.062;9.962;2023-04-25T01:58:44;9.20;99.90
6307;DHT22;3186;54.062;9.962;2023-04-25T02:01:23;9.30;99.90
6307;DHT22;3186;54.062;9.962;2023-04-25T02:04:07;9.30;99.90
6307;DHT22;3186;54.062;9.962;2023-04-25T02:06:35;9.30;99.90
6307;DHT22;3186;54.062;9.962;2023-04-25T02:09:01;9.20;99.90
6307;DHT22;3186;54.062;9.962;2023-04-25T02:11:27;9.00;99.90
6307;DHT22;3186;54.062;9.962;2023-04-25T02:14:12;9.10;99.90
6307;DHT22;3186;54.062;9.962;2023-04-25T02:16:44;9.20;99.90
6307;DHT22;3186;54.062;9.962;2023-04-25T02:19:10;9.20;99.90
6307;DHT22;3186;54.062;9.962;2023-04-25T02:21:36;9.10;99.90
6307;DHT22;3186;54.062;9.962;2023-04-25T02:24:03;9.10;99.90
6307;DHT22;3186;54.062;9.962;2023-04-25T02:26:30;9.20;99.90
6307;DHT22;3186;54.062;9.962;2023-04-25T02:28:57;9.10;99.90
6307;DHT22;3186;54.062;9.962;2023-04-25T02:31:23;9.10;99.90
6307;DHT22;3186;54.062;9.962;2023-04-25T02:33:50;9.00;99.90
6307;DHT22;3186;54.062;9.962;2023-04-25T02:36:16;9.00;99.90
6307;DHT22;3186;54.062;9.962;2023-04-25T02:38:41;9.00;99.90
6307;DHT22;3186;54.062;9.962;2023-04-25T02:41:08;8.80;99.90
6307;DHT22;3186;54.062;9.962;2023-04-25T02:43:33;10.30;99.90
6307;DHT22;3186;54.062;9.962;2023-04-25T02:45:59;8.60;99.90
6307;DHT22;3186;54.062;9.962;2023-04-25T02:48:25;8.60;99.90
6307;DHT22;3186;54.062;9.962;2023-04-25T02:50:51;8.60;99.90
6307;DHT22;3186;54.062;9.962;2023-04-25T02:53:17;8.70;99.90
6307;DHT22;3186;54.062;9.962;2023-04-25T02:55:47;8.60;99.90
6307;DHT22;3186;54.062;9.962;2023-04-25T02:58:13;8.50;99.90
6307;DHT22;3186;54.062;9.962;2023-04-25T03:00:46;8.40;99.90
6307;DHT22;3186;54.062;9.962;2023-04-25T03:03:12;8.50;99.90
6307;DHT22;3186;54.062;9.962;2023-04-25T03:05:38;8.50;99.90
6307;DHT22;3186;54.062;9.962;2023-04-25T03:08:04;8.40;99.90
6307;DHT22;3186;54.062;9.962;2023-04-25T03:10:32;8.30;99.90
6307;DHT22;3186;54.062;9.962;2023-04-25T03:13:03;8.40;99.90
6307;DHT22;3186;54.062;9.962;2023-04-25T03:15:29;8.40;99.90
6307;DHT22;3186;54.062;9.962;2023-04-25T03:17:55;8.50;99.90
6307;DHT22;3186;54.062;9.962;2023-04-25T03:20:22;8.50;99.90
6307;DHT22;3186;54.062;9.962;2023-04-25T03:22:48;8.40;99.90
6307;DHT22;3186;54.062;9.962;2023-04-25T03:25:14;8.20;99.90
6307;DHT22;3186;54.062;9.962;2023-04-25T03:27:40;8.20;99.90
6307;DHT22;3186;54.062;9.962;2023-04-25T03:30:07;8.20;99.90
6307;DHT22;3186;54.062;9.962;2023-04-25T03:32:34;8.10;99.90
6307;DHT22;3186;54.062;9.962;2023-04-25T03:35:00;8.10;99.90
6307;DHT22;3186;54.062;9.962;2023-04-25T03:37:27;7.80;99.70
6307;DHT22;3186;54.062;9.962;2023-04-25T03:39:53;8.10;99.90
6307;DHT22;3186;54.062;9.962;2023-04-25T03:42:21;8.10;99.90
6307;DHT22;3186;54.062;9.962;2023-04-25T03:44:49;8.10;99.90
6307;DHT22;3186;54.062;9.962;2023-04-25T03:47:15;8.00;99.90
6307;DHT22;3186;54.062;9.962;2023-04-25T03:49:41;8.00;99.90
6307;DHT22;3186;54.062;9.962;2023-04-25T03:52:07;7.90;99.90
6307;DHT22;3186;54.062;9.962;2023-04-25T03:54:37;7.90;99.90
6307;DHT22;3186;54.062;9.962;2023-04-25T03:57:13;8.10;99.90
6307;DHT22;3186;54.062;9.962;2023-04-25T03:59:39;8.00;99.90
6307;DHT22;3186;54.062;9.962;2023-04-25T04:02:06;7.90;99.90
6307;DHT22;3186;54.062;9.962;2023-04-25T04:04:34;7.80;99.40
6307;DHT22;3186;54.062;9.962;2023-04-25T04:07:01;7.80;99.90
6307;DHT22;3186;54.062;9.962;2023-04-25T04:09:30;8.00;99.90
6307;DHT22;3186;54.062;9.962;2023-04-25T04:11:58;8.00;99.90
6307;DHT22;3186;54.062;9.962;2023-04-25T04:14:24;7.90;99.90
6307;DHT22;3186;54.062;9.962;2023-04-25T04:16:51;8.00;99.90
6307;DHT22;3186;54.062;9.962;2023-04-25T04:19:17;7.90;99.90
6307;DHT22;3186;54.062;9.962;2023-04-25T04:21:50;7.90;99.90
6307;DHT22;3186;54.062;9.962;2023-04-25T04:24:15;7.90;99.90
6307;DHT22;3186;54.062;9.962;2023-04-25T04:26:57;7.90;99.90
6307;DHT22;3186;54.062;9.962;2023-04-25T04:29:30;7.90;98.80
6307;DHT22;3186;54.062;9.962;2023-04-25T04:32:04;7.70;97.60
6307;DHT22;3186;54.062;9.962;2023-04-25T04:34:32;7.70;99.90
6307;DHT22;3186;54.062;9.962;2023-04-25T04:36:59;7.70;99.90
6307;DHT22;3186;54.062;9.962;2023-04-25T04:39:26;8.00;99.90
6307;DHT22;3186;54.062;9.962;2023-04-25T04:42:04;8.10;99.90
6307;DHT22;3186;54.062;9.962;2023-04-25T04:44:49;8.00;99.90
6307;DHT22;3186;54.062;9.962;2023-04-25T04:47:42;8.00;99.90
6307;DHT22;3186;54.062;9.962;2023-04-25T04:50:27;7.90;99.90
6307;DHT22;3186;54.062;9.962;2023-04-25T04:53:13;8.00;99.90
6307;DHT22;3186;54.062;9.962;2023-04-25T04:55:51;7.80;96.90
6307;DHT22;3186;54.062;9.962;2023-04-25T04:58:31;7.90;97.30
6307;DHT22;3186;54.062;9.962;2023-04-25T05:01:11;7.80;99.90
6307;DHT22;3186;54.062;9.962;2023-04-25T05:03:56;7.70;97.70
6307;DHT22;3186;54.062;9.962;2023-04-25T05:06:44;7.60;96.00
6307;DHT22;3186;54.062;9.962;2023-04-25T05:09:28;7.80;99.90
6307;DHT22;3186;54.062;9.962;2023-04-25T05:12:07;7.80;99.90
6307;DHT22;3186;54.062;9.962;2023-04-25T05:14:50;7.90;99.90
6307;DHT22;3186;54.062;9.962;2023-04-25T05:17:33;8.00;99.90
6307;DHT22;3186;54.062;9.962;2023-04-25T05:20:09;7.90;99.90
6307;DHT22;3186;54.062;9.962;2023-04-25T05:23:00;8.00;99.90
6307;DHT22;3186;54.062;9.962;2023-04-25T05:25:59;8.00;99.90
6307;DHT22;3186;54.062;9.962;2023-04-25T05:28:36;8.10;99.90
6307;DHT22;3186;54.062;9.962;2023-04-25T05:31:14;8.10;98.60
6307;DHT22;3186;54.062;9.962;2023-04-25T05:33:51;7.90;99.90
6307;DHT22;3186;54.062;9.962;2023-04-25T05:36:19;8.00;99.20
6307;DHT22;3186;54.062;9.962;2023-04-25T05:38:45;8.10;99.90
6307;DHT22;3186;54.062;9.962;2023-04-25T05:41:14;8.00;99.90
6307;DHT22;3186;54.062;9.962;2023-04-25T05:43:57;8.00;99.90
6307;DHT22;3186;54.062;9.962;2023-04-25T05:46:35;8.00;95.20
6307;DHT22;3186;54.062;9.962;2023-04-25T05:49:14;7.70;96.10
6307;DHT22;3186;54.062;9.962;2023-04-25T05:51:54;7.80;99.90
6307;DHT22;3186;54.062;9.962;2023-04-25T05:54:46;7.70;97.10
6307;DHT22;3186;54.062;9.962;2023-04-25T05:57:20;7.80;99.90
6307;DHT22;3186;54.062;9.962;2023-04-25T05:59:47;7.90;99.90
6307;DHT22;3186;54.062;9.962;2023-04-25T06:02:13;7.90;99.90
6307;DHT22;3186;54.062;9.962;2023-04-25T06:04:40;8.00;96.80
6307;DHT22;3186;54.062;9.962;2023-04-25T06:07:06;8.10;99.90
6307;DHT22;3186;54.062;9.962;2023-04-25T06:09:32;8.00;91.30
6307;DHT22;3186;54.062;9.962;2023-04-25T06:11:58;7.90;90.00
6307;DHT22;3186;54.062;9.962;2023-04-25T06:14:24;7.90;91.30
6307;DHT22;3186;54.062;9.962;2023-04-25T06:16:50;7.90;94.50
6307;DHT22;3186;54.062;9.962;2023-04-25T06:19:16;8.00;90.00
6307;DHT22;3186;54.062;9.962;2023-04-25T06:21:43;8.00;92.70
6307;DHT22;3186;54.062;9.962;2023-04-25T06:24:09;8.00;85.90
6307;DHT22;3186;54.062;9.962;2023-04-25T06:26:35;8.00;89.30
6307;DHT22;3186;54.062;9.962;2023-04-25T06:29:02;8.10;92.40
6307;DHT22;3186;54.062;9.962;2023-04-25T06:31:28;8.10;93.40
6307;DHT22;3186;54.062;9.962;2023-04-25T06:33:55;8.10;92.70
6307;DHT22;3186;54.062;9.962;2023-04-25T06:36:23;8.20;95.20
6307;DHT22;3186;54.062;9.962;2023-04-25T06:38:53;8.30;94.60
6307;DHT22;3186;54.062;9.962;2023-04-25T06:41:20;8.40;94.50
6307;DHT22;3186;54.062;9.962;2023-04-25T06:43:46;8.30;90.80
6307;DHT22;3186;54.062;9.962;2023-04-25T06:46:29;8.30;93.00
6307;DHT22;3186;54.062;9.962;2023-04-25T06:48:58;8.40;92.00
6307;DHT22;3186;54.062;9.962;2023-04-25T06:51:24;8.30;92.80
6307;DHT22;3186;54.062;9.962;2023-04-25T06:53:52;8.30;92.00
6307;DHT22;3186;54.062;9.962;2023-04-25T06:56:25;8.40;93.30
6307;DHT22;3186;54.062;9.962;2023-04-25T06:59:13;8.50;93.50
6307;DHT22;3186;54.062;9.962;2023-04-25T07:01:40;8.50;94.40
6307;DHT22;3186;54.062;9.962;2023-04-25T07:04:18;8.50;92.00
6307;DHT22;3186;54.062;9.962;2023-04-25T07:06:49;8.60;92.20
6307;DHT22;3186;54.062;9.962;2023-04-25T07:09:18;8.60;90.90
6307;DHT22;3186;54.062;9.962;2023-04-25T07:11:46;8.50;90.80
6307;DHT22;3186;54.062;9.962;2023-04-25T07:14:12;8.50;88.00
6307;DHT22;3186;54.062;9.962;2023-04-25T07:16:39;8.50;91.50
6307;DHT22;3186;54.062;9.962;2023-04-25T07:19:05;8.50;91.40
6307;DHT22;3186;54.062;9.962;2023-04-25T07:21:31;8.50;93.10
6307;DHT22;3186;54.062;9.962;2023-04-25T07:24:00;8.60;91.50
6307;DHT22;3186;54.062;9.962;2023-04-25T07:26:31;8.70;91.00
6307;DHT22;3186;54.062;9.962;2023-04-25T07:29:16;8.70;86.40
6307;DHT22;3186;54.062;9.962;2023-04-25T07:31:42;8.70;72.70
6307;DHT22;3186;54.062;9.962;2023-04-25T07:34:07;8.60;70.10
6307;DHT22;3186;54.062;9.962;2023-04-25T07:36:35;8.70;86.30
6307;DHT22;3186;54.062;9.962;2023-04-25T07:39:00;9.00;62.00
6307;DHT22;3186;54.062;9.962;2023-04-25T07:41:26;9.00;51.10
6307;DHT22;3186;54.062;9.962;2023-04-25T07:43:52;8.90;56.20
6307;DHT22;3186;54.062;9.962;2023-04-25T07:46:19;8.90;68.70
6307;DHT22;3186;54.062;9.962;2023-04-25T07:48:45;8.90;61.20
6307;DHT22;3186;54.062;9.962;2023-04-25T07:51:11;9.00;59.50
6307;DHT22;3186;54.062;9.962;2023-04-25T07:53:37;9.10;46.70
6307;DHT22;3186;54.062;9.962;2023-04-25T07:56:08;9.10;46.00
6307;DHT22;3186;54.062;9.962;2023-04-25T07:58:38;9.10;58.00
6307;DHT22;3186;54.062;9.962;2023-04-25T08:01:06;9.10;59.70
6307;DHT22;3186;54.062;9.962;2023-04-25T08:03:55;9.20;55.30
6307;DHT22;3186;54.062;9.962;2023-04-25T08:06:47;9.20;37.90
6307;DHT22;3186;54.062;9.962;2023-04-25T08:09:19;9.20;41.30
6307;DHT22;3186;54.062;9.962;2023-04-25T08:11:46;9.30;63.40
6307;DHT22;3186;54.062;9.962;2023-04-25T08:14:14;9.40;43.50
6307;DHT22;3186;54.062;9.962;2023-04-25T08:16:42;9.60;33.00
6307;DHT22;3186;54.062;9.962;2023-04-25T08:19:08;9.70;30.80
6307;DHT22;3186;54.062;9.962;2023-04-25T08:21:34;9.50;47.70
6307;DHT22;3186;54.062;9.962;2023-04-25T08:24:04;9.60;28.80
6307;DHT22;3186;54.062;9.962;2023-04-25T08:26:33;9.50;46.90
6307;DHT22;3186;54.062;9.962;2023-04-25T08:29:00;9.50;38.70
6307;DHT22;3186;54.062;9.962;2023-04-25T08:31:26;9.40;49.20
6307;DHT22;3186;54.062;9.962;2023-04-25T08:33:57;9.40;41.40
6307;DHT22;3186;54.062;9.962;2023-04-25T08:36:37;9.50;39.20
6307;DHT22;3186;54.062;9.962;2023-04-25T08:39:03;9.50;55.80
6307;DHT22;3186;54.062;9.962;2023-04-25T08:41:29;9.60;59.80
6307;DHT22;3186;54.062;9.962;2023-04-25T08:43:56;9.40;62.90
6307;DHT22;3186;54.062;9.962;2023-04-25T08:46:25;9.40;59.10
6307;DHT22;3186;54.062;9.962;2023-04-25T08:49:05;9.30;66.30
6307;DHT22;3186;54.062;9.962;2023-04-25T08:51:32;9.60;66.80
6307;DHT22;3186;54.062;9.962;2023-04-25T08:54:10;9.70;59.30
6307;DHT22;3186;54.062;9.962;2023-04-25T08:56:38;9.80;59.60
6307;DHT22;3186;54.062;9.962;2023-04-25T08:59:04;9.90;57.50
6307;DHT22;3186;54.062;9.962;2023-04-25T09:01:34;9.90;56.10
6307;DHT22;3186;54.062;9.962;2023-04-25T09:04:01;10.00;48.40
6307;DHT22;3186;54.062;9.962;2023-04-25T09:06:31;10.30;48.50
6307;DHT22;3186;54.062;9.962;2023-04-25T09:09:06;10.10;49.70
6307;DHT22;3186;54.062;9.962;2023-04-25T09:11:33;10.20;41.10
6307;DHT22;3186;54.062;9.962;2023-04-25T09:14:20;10.20;50.60
6307;DHT22;3186;54.062;9.962;2023-04-25T09:17:01;10.30;39.50
6307;DHT22;3186;54.062;9.962;2023-04-25T09:19:42;10.30;45.80
6307;DHT22;3186;54.062;9.962;2023-04-25T09:22:19;10.20;39.90
6307;DHT22;3186;54.062;9.962;2023-04-25T09:24:47;9.90;52.40
6307;DHT22;3186;54.062;9.962;2023-04-25T09:27:20;9.70;59.60
6307;DHT22;3186;54.062;9.962;2023-04-25T09:29:57;9.90;57.50
6307;DHT22;3186;54.062;9.962;2023-04-25T09:32:26;10.00;56.40
6307;DHT22;3186;54.062;9.962;2023-04-25T09:34:56;10.10;62.30
6307;DHT22;3186;54.062;9.962;2023-04-25T09:37:23;10.10;46.80
6307;DHT22;3186;54.062;9.962;2023-04-25T09:40:06;10.10;55.30
6307;DHT22;3186;54.062;9.962;2023-04-25T09:42:41;10.20;51.60
6307;DHT22;3186;54.062;9.962;2023-04-25T09:45:07;9.70;80.10
6307;DHT22;3186;54.062;9.962;2023-04-25T09:47:38;9.80;78.70
6307;DHT22;3186;54.062;9.962;2023-04-25T09:50:14;9.90;79.30
6307;DHT22;3186;54.062;9.962;2023-04-25T09:52:43;10.20;74.50
6307;DHT22;3186;54.062;9.962;2023-04-25T09:55:23;10.40;75.60
6307;DHT22;3186;54.062;9.962;2023-04-25T09:57:53;10.40;59.90
6307;DHT22;3186;54.062;9.962;2023-04-25T10:00:21;10.50;63.90
6307;DHT22;3186;54.062;9.962;2023-04-25T10:02:47;10.50;58.90
6307;DHT22;3186;54.062;9.962;2023-04-25T10:05:34;10.90;47.50
6307;DHT22;3186;54.062;9.962;2023-04-25T10:08:03;11.20;51.00
6307;DHT22;3186;54.062;9.962;2023-04-25T10:10:32;11.40;43.40
6307;DHT22;3186;54.062;9.962;2023-04-25T10:13:04;11.10;41.80
6307;DHT22;3186;54.062;9.962;2023-04-25T10:15:31;11.10;48.30
6307;DHT22;3186;54.062;9.962;2023-04-25T10:17:58;11.70;51.60
6307;DHT22;3186;54.062;9.962;2023-04-25T10:20:25;12.20;41.60
6307;DHT22;3186;54.062;9.962;2023-04-25T10:22:52;11.70;27.90
6307;DHT22;3186;54.062;9.962;2023-04-25T10:25:19;11.40;39.40
6307;DHT22;3186;54.062;9.962;2023-04-25T10:27:45;11.20;39.90
6307;DHT22;3186;54.062;9.962;2023-04-25T10:30:14;11.20;50.80
6307;DHT22;3186;54.062;9.962;2023-04-25T10:32:44;11.30;51.70
6307;DHT22;3186;54.062;9.962;2023-04-25T10:35:19;11.50;35.10
6307;DHT22;3186;54.062;9.962;2023-04-25T10:38:03;12.10;24.40
6307;DHT22;3186;54.062;9.962;2023-04-25T10:40:30;11.90;27.40
6307;DHT22;3186;54.062;9.962;2023-04-25T10:45:55;11.80;35.80
6307;DHT22;3186;54.062;9.962;2023-04-25T10:48:27;12.00;43.30
6307;DHT22;3186;54.062;9.962;2023-04-25T10:51:16;11.90;37.00
6307;DHT22;3186;54.062;9.962;2023-04-25T10:58:47;11.70;65.00
6307;DHT22;3186;54.062;9.962;2023-04-25T11:01:24;11.00;82.50
6307;DHT22;3186;54.062;9.962;2023-04-25T11:03:57;11.00;73.80
6307;DHT22;3186;54.062;9.962;2023-04-25T11:06:42;10.60;79.20
6307;DHT22;3186;54.062;9.962;2023-04-25T11:09:12;11.00;80.00
6307;DHT22;3186;54.062;9.962;2023-04-25T11:11:41;10.70;78.70
6307;DHT22;3186;54.062;9.962;2023-04-25T11:14:07;10.50;68.10
6307;DHT22;3186;54.062;9.962;2023-04-25T11:16:33;11.10;71.60
6307;DHT22;3186;54.062;9.962;2023-04-25T11:18:59;11.30;59.90
6307;DHT22;3186;54.062;9.962;2023-04-25T11:21:28;11.20;65.10
6307;DHT22;3186;54.062;9.962;2023-04-25T11:23:56;11.10;70.50
6307;DHT22;3186;54.062;9.962;2023-04-25T11:26:22;11.10;53.50
6307;DHT22;3186;54.062;9.962;2023-04-25T11:28:49;11.40;60.20
6307;DHT22;3186;54.062;9.962;2023-04-25T11:31:15;11.30;56.40
6307;DHT22;3186;54.062;9.962;2023-04-25T11:33:41;11.60;59.20
6307;DHT22;3186;54.062;9.962;2023-04-25T11:36:08;11.70;56.50
6307;DHT22;3186;54.062;9.962;2023-04-25T11:38:34;11.70;58.20
6307;DHT22;3186;54.062;9.962;2023-04-25T11:41:00;11.90;57.10
6307;DHT22;3186;54.062;9.962;2023-04-25T11:43:26;12.20;55.10
6307;DHT22;3186;54.062;9.962;2023-04-25T11:45:52;12.10;34.00
6307;DHT22;3186;54.062;9.962;2023-04-25T11:48:21;11.80;53.80
6307;DHT22;3186;54.062;9.962;2023-04-25T11:50:46;11.70;37.60
6307;DHT22;3186;54.062;9.962;2023-04-25T11:53:12;11.50;43.90
6307;DHT22;3186;54.062;9.962;2023-04-25T11:55:38;11.00;56.10
6307;DHT22;3186;54.062;9.962;2023-04-25T11:58:05;10.80;89.70
6307;DHT22;3186;54.062;9.962;2023-04-25T12:00:32;11.00;82.70
6307;DHT22;3186;54.062;9.962;2023-04-25T12:02:58;11.30;71.80
6307;DHT22;3186;54.062;9.962;2023-04-25T12:05:26;11.60;74.00
6307;DHT22;3186;54.062;9.962;2023-04-25T12:07:52;11.40;78.90
6307;DHT22;3186;54.062;9.962;2023-04-25T12:10:18;11.50;83.20
6307;DHT22;3186;54.062;9.962;2023-04-25T12:12:45;11.70;77.40
6307;DHT22;3186;54.062;9.962;2023-04-25T12:15:16;11.70;78.60
6307;DHT22;3186;54.062;9.962;2023-04-25T12:17:49;11.60;77.50
6307;DHT22;3186;54.062;9.962;2023-04-25T12:20:25;11.40;78.00
6307;DHT22;3186;54.062;9.962;2023-04-25T12:22:52;11.40;75.10
6307;DHT22;3186;54.062;9.962;2023-04-25T12:30:57;11.90;69.60
6307;DHT22;3186;54.062;9.962;2023-04-25T12:33:28;11.80;58.30
6307;DHT22;3186;54.062;9.962;2023-04-25T12:35:55;11.80;63.60
6307;DHT22;3186;54.062;9.962;2023-04-25T12:38:29;11.70;56.70
6307;DHT22;3186;54.062;9.962;2023-04-25T12:40:56;11.80;49.60
6307;DHT22;3186;54.062;9.962;2023-04-25T12:43:22;11.80;48.40
6307;DHT22;3186;54.062;9.962;2023-04-25T12:45:55;12.10;48.90
6307;DHT22;3186;54.062;9.962;2023-04-25T12:48:22;12.30;45.10
6307;DHT22;3186;54.062;9.962;2023-04-25T12:50:49;12.00;33.40
6307;DHT22;3186;54.062;9.962;2023-04-25T12:53:20;12.10;36.50
6307;DHT22;3186;54.062;9.962;2023-04-25T12:55:46;11.80;43.80
6307;DHT22;3186;54.062;9.962;2023-04-25T12:58:17;11.70;38.80
6307;DHT22;3186;54.062;9.962;2023-04-25T13:00:43;11.90;49.40
6307;DHT22;3186;54.062;9.962;2023-04-25T13:03:09;11.80;17.90
6307;DHT22;3186;54.062;9.962;2023-04-25T13:05:37;11.80;42.50
6307;DHT22;3186;54.062;9.962;2023-04-25T13:08:03;12.30;39.20
6307;DHT22;3186;54.062;9.962;2023-04-25T13:10:30;12.40;12.30
6307;DHT22;3186;54.062;9.962;2023-04-25T13:12:55;12.10;22.10
6307;DHT22;3186;54.062;9.962;2023-04-25T13:15:22;12.60;29.90
6307;DHT22;3186;54.062;9.962;2023-04-25T13:17:48;12.60;23.30
6307;DHT22;3186;54.062;9.962;2023-04-25T13:20:14;12.50;8.50
6307;DHT22;3186;54.062;9.962;2023-04-25T13:22:42;12.10;25.10
6307;DHT22;3186;54.062;9.962;2023-04-25T13:25:08;12.20;23.90
6307;DHT22;3186;54.062;9.962;2023-04-25T13:27:35;12.20;23.60
6307;DHT22;3186;54.062;9.962;2023-04-25T13:30:03;12.20;36.90
6307;DHT22;3186;54.062;9.962;2023-04-25T13:32:36;12.00;21.70
6307;DHT22;3186;54.062;9.962;2023-04-25T13:35:11;12.00;26.70
6307;DHT22;3186;54.062;9.962;2023-04-25T13:37:38;12.10;21.30
6307;DHT22;3186;54.062;9.962;2023-04-25T13:40:06;11.70;33.70
6307;DHT22;3186;54.062;9.962;2023-04-25T13:42:34;11.60;40.30
6307;DHT22;3186;54.062;9.962;2023-04-25T13:45:00;11.40;42.50
6307;DHT22;3186;54.062;9.962;2023-04-25T13:47:27;11.70;34.40
6307;DHT22;3186;54.062;9.962;2023-04-25T13:49:53;11.90;14.30
6307;DHT22;3186;54.062;9.962;2023-04-25T13:52:19;11.90;23.50
6307;DHT22;3186;54.062;9.962;2023-04-25T13:54:45;12.00;28.40
6307;DHT22;3186;54.062;9.962;2023-04-25T13:57:10;12.10;31.50
6307;DHT22;3186;54.062;9.962;2023-04-25T13:59:37;12.20;27.30
6307;DHT22;3186;54.062;9.962;2023-04-25T14:02:03;12.40;24.50
6307;DHT22;3186;54.062;9.962;2023-04-25T14:04:29;12.40;30.30
6307;DHT22;3186;54.062;9.962;2023-04-25T14:06:55;12.40;22.30
6307;DHT22;3186;54.062;9.962;2023-04-25T14:09:21;12.10;24.60
6307;DHT22;3186;54.062;9.962;2023-04-25T14:11:54;12.00;27.20
6307;DHT22;3186;54.062;9.962;2023-04-25T14:14:21;12.00;28.70
6307;DHT22;3186;54.062;9.962;2023-04-25T14:16:48;12.20;26.90
6307;DHT22;3186;54.062;9.962;2023-04-25T14:19:14;12.30;25.60
6307;DHT22;3186;54.062;9.962;2023-04-25T14:21:41;12.30;19.50
6307;DHT22;3186;54.062;9.962;2023-04-25T14:24:08;12.50;23.60
6307;DHT22;3186;54.062;9.962;2023-04-25T14:26:34;12.60;14.10
6307;DHT22;3186;54.062;9.962;2023-04-25T14:29:01;12.40;21.90
6307;DHT22;3186;54.062;9.962;2023-04-25T14:31:27;12.60;17.00
6307;DHT22;3186;54.062;9.962;2023-04-25T14:33:53;12.40;12.50
6307;DHT22;3186;54.062;9.962;2023-04-25T14:36:19;12.60;19.10
6307;DHT22;3186;54.062;9.962;2023-04-25T14:38:45;12.60;24.70
6307;DHT22;3186;54.062;9.962;2023-04-25T14:41:12;12.60;26.60
6307;DHT22;3186;54.062;9.962;2023-04-25T14:43:38;12.60;16.30
6307;DHT22;3186;54.062;9.962;2023-04-25T14:46:05;12.70;32.70
6307;DHT22;3186;54.062;9.962;2023-04-25T14:48:32;12.70;33.40
6307;DHT22;3186;54.062;9.962;2023-04-25T14:50:59;12.50;27.30
6307;DHT22;3186;54.062;9.962;2023-04-25T14:53:26;12.30;36.50
6307;DHT22;3186;54.062;9.962;2023-04-25T14:55:52;12.50;42.70
6307;DHT22;3186;54.062;9.962;2023-04-25T14:58:18;12.20;38.00
6307;DHT22;3186;54.062;9.962;2023-04-25T15:00:44;12.60;45.90
6307;DHT22;3186;54.062;9.962;2023-04-25T15:03:10;12.60;29.90
6307;DHT22;3186;54.062;9.962;2023-04-25T15:05:39;12.60;38.10
6307;DHT22;3186;54.062;9.962;2023-04-25T15:08:05;12.80;36.70
6307;DHT22;3186;54.062;9.962;2023-04-25T15:10:31;12.70;28.80
6307;DHT22;3186;54.062;9.962;2023-04-25T15:12:57;12.80;35.50
6307;DHT22;3186;54.062;9.962;2023-04-25T15:15:23;12.50;28.40
6307;DHT22;3186;54.062;9.962;2023-04-25T15:17:50;12.30;27.30
6307;DHT22;3186;54.062;9.962;2023-04-25T15:20:16;12.30;26.70
6307;DHT22;3186;54.062;9.962;2023-04-25T15:22:43;12.30;24.70
6307;DHT22;3186;54.062;9.962;2023-04-25T15:25:10;12.30;34.70
6307;DHT22;3186;54.062;9.962;2023-04-25T15:27:37;12.30;35.60
6307;DHT22;3186;54.062;9.962;2023-04-25T15:30:07;12.30;30.30
6307;DHT22;3186;54.062;9.962;2023-04-25T15:32:34;12.40;34.10
6307;DHT22;3186;54.062;9.962;2023-04-25T15:35:03;12.00;30.90
6307;DHT22;3186;54.062;9.962;2023-04-25T15:37:29;11.60;48.90
6307;DHT22;3186;54.062;9.962;2023-04-25T15:40:24;11.50;53.20
6307;DHT22;3186;54.062;9.962;2023-04-25T15:42:52;11.50;56.80
6307;DHT22;3186;54.062;9.962;2023-04-25T15:45:19;11.70;56.40
6307;DHT22;3186;54.062;9.962;2023-04-25T15:47:46;12.00;66.80
6307;DHT22;3186;54.062;9.962;2023-04-25T15:50:13;12.10;60.00
6307;DHT22;3186;54.062;9.962;2023-04-25T15:52:41;12.30;51.90
6307;DHT22;3186;54.062;9.962;2023-04-25T15:55:08;12.20;57.50
6307;DHT22;3186;54.062;9.962;2023-04-25T15:57:35;11.90;61.90
6307;DHT22;3186;54.062;9.962;2023-04-25T16:00:02;11.90;55.80
6307;DHT22;3186;54.062;9.962;2023-04-25T16:02:37;12.10;59.10
6307;DHT22;3186;54.062;9.962;2023-04-25T16:05:04;11.90;55.30
6307;DHT22;3186;54.062;9.962;2023-04-25T16:07:29;12.10;53.50
6307;DHT22;3186;54.062;9.962;2023-04-25T16:09:55;12.20;49.10
6307;DHT22;3186;54.062;9.962;2023-04-25T16:12:21;12.20;52.20
6307;DHT22;3186;54.062;9.962;2023-04-25T16:14:47;12.10;46.40
6307;DHT22;3186;54.062;9.962;2023-04-25T16:17:13;11.90;48.40
6307;DHT22;3186;54.062;9.962;2023-04-25T16:19:38;11.90;40.90
6307;DHT22;3186;54.062;9.962;2023-04-25T16:22:04;11.80;46.10
6307;DHT22;3186;54.062;9.962;2023-04-25T16:24:31;12.00;48.00
6307;DHT22;3186;54.062;9.962;2023-04-25T16:26:57;12.20;46.40
6307;DHT22;3186;54.062;9.962;2023-04-25T16:29:23;12.00;45.00
6307;DHT22;3186;54.062;9.962;2023-04-25T16:31:49;11.90;45.00
6307;DHT22;3186;54.062;9.962;2023-04-25T16:34:15;11.90;46.20
6307;DHT22;3186;54.062;9.962;2023-04-25T16:36:40;11.70;42.90